Time;durP1;ratioP1;P1;durP2;ratioP2;P2;SDS_P1;SDS_P2;PMS_P1;PMS_P2;Temp;Humidity;BMP_temperature;BMP_pressure;BME280_temperature;BME280_humidity;BME280_pressure;Samples;Min_cycle;Max_cycle;Signal;HPM_P1;HPM_P2
2021/09/11 00:01:42;;;;;;;5.45;4.95;;;;;;;21.83;62.70;97378.22;4950340;29;20085;-81
2021/09/11 00:04:07;;;;;;;6.15;4.95;;;;;;;21.86;62.28;97359.81;4961056;28;20326;-81
2021/09/11 00:06:33;;;;;;;6.25;5.53;;;;;;;21.83;62.49;97365.75;4974448;28;20069;-81
2021/09/11 00:08:58;;;;;;;4.93;4.53;;;;;;;21.84;62.50;97361.22;4958134;28;20030;-81
2021/09/11 00:11:24;;;;;;;5.22;4.82;;;;;;;21.83;62.78;97363.09;4942972;28;20040;-81
2021/09/11 00:13:49;;;;;;;5.15;4.68;;;;;;;21.73;63.25;97358.13;4925713;28;20057;-81
2021/09/11 00:16:14;;;;;;;4.50;4.10;;;;;;;21.78;62.80;97357.97;4938765;28;20545;-81
2021/09/11 00:18:40;;;;;;;7.38;5.68;;;;;;;21.74;62.97;97351.72;4944172;28;20442;-81
2021/09/11 00:21:05;;;;;;;5.05;4.55;;;;;;;21.69;63.08;97359.81;4923102;28;20027;-81
2021/09/11 00:23:33;;;;;;;5.90;5.10;;;;;;;21.73;63.13;97352.81;4960908;28;20207;-81
2021/09/11 00:25:59;;;;;;;5.20;4.70;;;;;;;21.68;63.20;97352.97;4955593;28;20031;-81
2021/09/11 00:28:27;;;;;;;5.60;5.05;;;;;;;21.59;63.55;97354.84;4948741;28;20039;-81
2021/09/11 00:30:53;;;;;;;5.85;5.35;;;;;;;21.68;63.31;97356.41;4919804;29;20388;-82
2021/09/11 00:33:18;;;;;;;4.97;4.57;;;;;;;21.67;63.17;97362.00;4921964;28;20035;-81
2021/09/11 00:35:44;;;;;;;5.75;5.13;;;;;;;21.68;63.13;97352.97;4974150;28;20169;-81
2021/09/11 00:38:09;;;;;;;5.45;4.95;;;;;;;21.54;63.95;97368.25;4946608;28;20051;-81
2021/09/11 00:40:34;;;;;;;6.68;5.35;;;;;;;21.67;63.24;97362.00;4971978;28;20446;-81
2021/09/11 00:43:00;;;;;;;6.82;5.47;;;;;;;21.58;63.88;97362.00;4922395;28;20049;-82
2021/09/11 00:45:28;;;;;;;5.68;5.15;;;;;;;21.64;63.41;97357.31;4937011;28;20085;-82
2021/09/11 00:47:53;;;;;;;5.45;4.95;;;;;;;21.61;63.51;97358.75;4953349;28;20415;-81
2021/09/11 00:50:19;;;;;;;5.80;5.20;;;;;;;21.40;64.05;97363.81;4954233;28;20041;-81
2021/09/11 00:52:46;;;;;;;7.22;5.13;;;;;;;21.56;63.28;97366.06;4946584;28;20085;-81
2021/09/11 00:55:13;;;;;;;6.05;5.45;;;;;;;21.61;63.12;97364.03;4966715;28;20391;-81
2021/09/11 00:57:41;;;;;;;5.32;4.82;;;;;;;21.59;63.01;97360.13;4961749;28;20529;-81
2021/09/11 01:00:08;;;;;;;5.75;5.18;;;;;;;21.57;63.45;97363.09;4919165;29;20435;-81
2021/09/11 01:02:33;;;;;;;5.75;5.20;;;;;;;21.55;63.49;97359.22;4990862;23;20142;-76
2021/09/11 01:04:59;;;;;;;7.47;5.60;;;;;;;21.57;63.70;97359.66;4946189;29;20126;-77
2021/09/11 01:07:25;;;;;;;5.85;5.25;;;;;;;21.53;63.72;97359.53;4923287;28;20034;-76
2021/09/11 01:09:51;;;;;;;5.35;4.88;;;;;;;21.50;63.87;97358.25;4938809;28;20019;-77
2021/09/11 01:12:16;;;;;;;6.10;5.50;;;;;;;21.57;63.77;97364.97;4923052;28;20046;-76
2021/09/11 01:14:41;;;;;;;6.00;5.43;;;;;;;21.61;63.73;97361.41;4953970;28;20035;-76
2021/09/11 01:17:15;;;;;;;6.53;5.90;;;;;;;21.42;63.75;97358.22;4938372;28;20053;-76
2021/09/11 01:19:42;;;;;;;6.68;6.03;;;;;;;21.60;63.56;97364.34;4938700;28;20041;-77
2021/09/11 01:22:17;;;;;;;7.47;5.80;;;;;;;21.39;63.81;97356.22;4938297;28;20039;-76
2021/09/11 01:25:03;;;;;;;6.70;6.10;;;;;;;21.41;63.87;97361.97;4969191;28;20046;-76
2021/09/11 01:27:29;;;;;;;6.50;5.75;;;;;;;21.62;63.48;97356.88;4938421;28;20441;-76
2021/09/11 01:30:15;;;;;;;7.00;6.30;;;;;;;21.26;64.70;97350.72;4954757;28;20031;-76
2021/09/11 01:32:40;;;;;;;5.53;5.03;;;;;;;21.57;63.66;97357.78;4922609;28;20031;-76
2021/09/11 01:35:06;;;;;;;7.10;5.45;;;;;;;21.58;63.67;97353.28;4937746;28;20030;-77
2021/09/11 01:37:32;;;;;;;6.13;5.53;;;;;;;21.55;63.94;97354.69;4937926;28;20027;-77
2021/09/11 01:39:57;;;;;;;6.45;5.75;;;;;;;21.57;63.93;97349.84;4954392;28;20043;-76
2021/09/11 01:42:26;;;;;;;6.30;5.60;;;;;;;21.42;64.22;97348.44;4938331;28;20035;-76
2021/09/11 01:45:00;;;;;;;5.68;5.03;;;;;;;21.37;64.11;97356.53;4922248;28;20483;-76
2021/09/11 01:47:26;;;;;;;6.33;5.73;;;;;;;21.53;63.63;97346.28;4953383;28;20026;-76
2021/09/11 01:49:52;;;;;;;7.20;5.75;;;;;;;21.53;63.71;97350.78;4953996;28;20030;-76
2021/09/11 01:52:19;;;;;;;7.65;6.78;;;;;;;21.47;63.89;97353.59;4953437;28;20142;-76
2021/09/11 01:54:44;;;;;;;7.05;6.35;;;;;;;21.49;63.82;97348.75;4940704;28;20074;-76
2021/09/11 01:57:10;;;;;;;6.55;5.85;;;;;;;21.46;64.04;97357.31;4921844;28;20062;-76
2021/09/11 01:59:36;;;;;;;6.93;5.78;;;;;;;21.44;63.87;97346.25;4937628;28;20027;-76
2021/09/11 02:02:03;;;;;;;7.88;7.15;;;;;;;21.42;63.65;97345.78;4964432;28;20409;-76
2021/09/11 02:04:29;;;;;;;7.07;5.80;;;;;;;21.52;63.65;97352.66;4953790;28;20263;-76
2021/09/11 02:06:54;;;;;;;8.18;5.95;;;;;;;21.47;63.83;97350.94;4951040;29;20039;-77
2021/09/11 02:09:26;;;;;;;6.82;6.13;;;;;;;21.46;64.05;97356.53;4934662;29;20031;-77
2021/09/11 02:11:51;;;;;;;7.13;6.20;;;;;;;21.42;64.08;97343.13;4934490;29;20040;-77
2021/09/11 02:14:17;;;;;;;6.35;5.75;;;;;;;21.38;64.11;97352.75;4917980;29;20109;-76
2021/09/11 02:16:42;;;;;;;7.35;5.88;;;;;;;21.42;64.04;97351.06;4949997;29;20031;-76
2021/09/11 02:19:08;;;;;;;8.88;7.38;;;;;;;21.35;64.32;97345.44;4950468;29;20040;-76
2021/09/11 02:21:33;;;;;;;7.95;6.70;;;;;;;21.38;63.91;97342.16;4949660;29;20031;-76
2021/09/11 02:23:59;;;;;;;8.10;6.97;;;;;;;21.36;64.11;97356.81;4916972;29;20031;-76
2021/09/11 02:26:27;;;;;;;7.88;6.47;;;;;;;21.27;64.34;97354.94;4950552;29;20078;-76
2021/09/11 02:28:54;;;;;;;8.73;6.18;;;;;;;21.31;64.41;97355.88;4950109;29;20479;-77
2021/09/11 02:31:20;;;;;;;6.72;6.03;;;;;;;21.27;64.43;97359.47;4933699;29;20040;-76
2021/09/11 02:33:47;;;;;;;7.28;6.28;;;;;;;21.36;64.12;97362.91;4949530;29;20035;-76
2021/09/11 02:36:16;;;;;;;7.20;6.43;;;;;;;21.24;64.50;97360.09;4965795;28;20023;-76
2021/09/11 02:38:42;;;;;;;7.03;6.32;;;;;;;21.36;64.06;97356.81;4933876;29;20043;-76
2021/09/11 02:41:07;;;;;;;8.50;7.10;;;;;;;21.38;64.12;97365.25;4949670;28;20058;-76
2021/09/11 02:43:33;;;;;;;7.80;6.70;;;;;;;21.32;64.48;97372.56;4950104;29;20042;-76
2021/09/11 02:45:58;;;;;;;7.57;6.55;;;;;;;21.30;64.66;97364.13;4933041;29;20031;-76
2021/09/11 02:48:24;;;;;;;7.50;6.38;;;;;;;21.35;64.47;97368.50;4949514;29;20502;-77
2021/09/11 02:50:49;;;;;;;8.25;6.50;;;;;;;21.26;64.82;97366.63;4948999;29;20051;-77
2021/09/11 02:53:15;;;;;;;8.10;6.05;;;;;;;21.35;64.37;97366.63;4950111;29;20066;-76
2021/09/11 02:55:40;;;;;;;7.10;6.38;;;;;;;21.32;64.36;97361.97;4917382;29;20039;-76
2021/09/11 02:58:05;;;;;;;7.43;6.20;;;;;;;21.37;64.21;97364.47;4949856;29;20427;-76
2021/09/11 03:00:31;;;;;;;7.50;5.88;;;;;;;21.29;64.39;97362.59;4949057;29;20042;-76
2021/09/11 03:02:56;;;;;;;8.57;7.05;;;;;;;21.29;64.35;97362.59;4949548;29;20075;-77
2021/09/11 03:05:21;;;;;;;9.15;7.55;;;;;;;21.24;64.34;97368.78;4933367;29;20043;-76
2021/09/11 03:07:47;;;;;;;10.55;7.35;;;;;;;21.21;64.67;97360.69;4948731;29;20067;-77
2021/09/11 03:10:12;;;;;;;9.65;7.35;;;;;;;21.16;64.51;97360.84;4949427;29;20031;-76
2021/09/11 03:12:38;;;;;;;9.25;7.22;;;;;;;21.19;64.89;97363.66;4933494;29;20031;-76
2021/09/11 03:15:06;;;;;;;13.15;8.05;;;;;;;21.27;64.27;97354.16;4932866;29;20399;-76
2021/09/11 03:17:34;;;;;;;9.32;6.95;;;;;;;21.25;64.27;97356.31;4934051;29;20530;-76
2021/09/11 03:19:59;;;;;;;9.55;7.75;;;;;;;21.20;64.42;97359.13;4949185;29;20035;-76
2021/09/11 03:22:24;;;;;;;8.68;7.28;;;;;;;21.23;64.27;97359.31;4932947;28;20067;-76
2021/09/11 03:24:50;;;;;;;10.63;8.13;;;;;;;21.11;64.76;97351.97;4956513;28;20042;-76
2021/09/11 03:27:15;;;;;;;9.38;8.18;;;;;;;21.12;64.84;97364.09;4932902;29;20027;-76
2021/09/11 03:29:41;;;;;;;11.70;8.38;;;;;;;20.98;65.36;97352.88;4933574;29;20538;-76
2021/09/11 03:32:07;;;;;;;10.05;7.93;;;;;;;21.10;64.90;97360.97;4948902;29;20046;-77
2021/09/11 03:34:33;;;;;;;10.20;8.32;;;;;;;21.12;64.88;97350.09;4933608;29;20506;-76
2021/09/11 03:36:59;;;;;;;11.07;8.43;;;;;;;21.03;65.31;97350.06;4965518;28;20038;-76
2021/09/11 03:39:24;;;;;;;10.10;8.30;;;;;;;21.04;64.92;97359.59;4965325;28;20392;-76
2021/09/11 03:41:50;;;;;;;13.38;9.07;;;;;;;21.04;65.14;97358.78;4948574;29;20091;-77
2021/09/11 03:44:15;;;;;;;12.13;8.52;;;;;;;21.08;64.84;97359.75;4949085;29;20111;-76
2021/09/11 03:46:40;;;;;;;9.88;8.20;;;;;;;21.06;64.91;97352.09;4964138;28;20039;-76
2021/09/11 03:49:06;;;;;;;11.15;8.60;;;;;;;21.01;65.14;97356.75;4933484;29;20028;-76
2021/09/11 03:51:32;;;;;;;10.82;8.57;;;;;;;21.04;65.14;97362.22;4917355;29;20043;-76
2021/09/11 03:53:58;;;;;;;9.55;8.13;;;;;;;21.07;64.72;97369.53;4933627;29;20130;-76
2021/09/11 03:56:23;;;;;;;9.65;7.57;;;;;;;21.09;64.85;97364.72;4948719;29;20102;-76
2021/09/11 03:58:48;;;;;;;10.75;8.50;;;;;;;21.07;64.90;97368.75;4932982;29;20091;-76
2021/09/11 04:01:14;;;;;;;11.13;7.60;;;;;;;21.07;64.80;97366.88;4948960;29;20046;-76
2021/09/11 04:03:39;;;;;;;10.23;7.97;;;;;;;21.10;64.76;97366.28;4924391;29;20059;-76
2021/09/11 04:06:05;;;;;;;9.73;7.63;;;;;;;21.07;64.66;97361.59;4925353;29;20027;-76
2021/09/11 04:08:31;;;;;;;9.60;8.45;;;;;;;20.99;64.83;97357.06;4948715;29;20032;-76
2021/09/11 04:10:57;;;;;;;10.20;8.40;;;;;;;20.99;65.01;97356.28;4932884;29;20047;-76
2021/09/11 04:13:24;;;;;;;10.32;8.65;;;;;;;21.06;64.98;97361.91;4949260;29;20567;-77
2021/09/11 04:15:50;;;;;;;9.60;7.82;;;;;;;21.09;64.77;97366.59;4917253;29;20031;-77
2021/09/11 04:18:16;;;;;;;11.98;8.27;;;;;;;21.00;65.16;97361.28;4933598;29;20574;-76
2021/09/11 04:20:42;;;;;;;9.82;8.80;;;;;;;21.01;65.18;97362.84;4936388;29;20282;-76
2021/09/11 04:23:07;;;;;;;11.02;8.13;;;;;;;21.04;64.83;97362.22;4952186;29;20039;-76
2021/09/11 04:25:32;;;;;;;12.07;8.40;;;;;;;21.01;64.84;97349.59;4952786;29;20038;-76
2021/09/11 04:27:58;;;;;;;9.63;8.38;;;;;;;21.05;64.80;97355.84;4952659;29;20470;-76
2021/09/11 04:30:23;;;;;;;8.45;7.32;;;;;;;21.04;64.81;97353.50;4936420;29;20020;-77
2021/09/11 04:32:48;;;;;;;9.73;7.80;;;;;;;21.09;64.72;97358.63;4936589;29;20035;-76
2021/09/11 04:35:14;;;;;;;9.13;7.80;;;;;;;21.11;64.72;97364.41;4936683;29;20039;-76
2021/09/11 04:37:39;;;;;;;8.00;7.20;;;;;;;21.08;64.81;97368.47;4920198;29;20055;-76
2021/09/11 04:40:05;;;;;;;8.63;7.25;;;;;;;21.06;65.00;97362.69;4936334;29;20027;-76
2021/09/11 04:42:34;;;;;;;10.02;8.15;;;;;;;21.05;64.83;97369.06;4936463;29;20063;-76
2021/09/11 04:44:59;;;;;;;9.43;8.35;;;;;;;21.10;64.59;97374.22;4936918;29;20394;-76
2021/09/11 04:47:24;;;;;;;7.43;6.57;;;;;;;21.09;64.83;97370.00;4951612;29;20027;-76
2021/09/11 04:49:50;;;;;;;10.85;7.68;;;;;;;21.05;64.80;97369.06;4920458;29;20032;-76
2021/09/11 04:52:15;;;;;;;12.98;8.68;;;;;;;21.05;64.92;97360.34;4951535;29;20399;-76
2021/09/11 04:54:40;;;;;;;10.48;9.20;;;;;;;21.03;64.91;97360.66;4975191;28;20027;-76
2021/09/11 04:57:06;;;;;;;10.68;7.93;;;;;;;21.01;65.55;97362.03;4971143;28;20034;-76
2021/09/11 04:59:32;;;;;;;11.38;7.97;;;;;;;21.01;64.89;97357.53;4949744;29;20157;-77
2021/09/11 05:01:57;;;;;;;11.27;8.45;;;;;;;21.02;64.62;97359.09;4934543;29;20396;-76
2021/09/11 05:04:23;;;;;;;12.02;9.10;;;;;;;20.98;65.06;97360.81;4935293;29;20031;-76
2021/09/11 05:06:49;;;;;;;9.73;8.65;;;;;;;20.98;64.96;97360.81;4951725;29;20027;-76
2021/09/11 05:09:14;;;;;;;11.40;8.35;;;;;;;20.94;65.17;97365.94;4966370;28;20118;-76
2021/09/11 05:11:39;;;;;;;11.50;9.73;;;;;;;20.99;65.00;97375.59;4934844;29;20038;-76
2021/09/11 05:14:05;;;;;;;14.27;9.02;;;;;;;20.98;65.13;97370.63;4937997;29;20035;-76
2021/09/11 05:16:30;;;;;;;13.75;10.05;;;;;;;20.95;65.09;97372.78;4939259;29;20027;-76
2021/09/11 05:18:56;;;;;;;11.75;9.80;;;;;;;20.93;65.41;97371.53;4950294;29;20035;-76
2021/09/11 05:21:21;;;;;;;14.10;9.48;;;;;;;21.01;65.02;97375.28;4934778;29;20043;-76
2021/09/11 05:23:47;;;;;;;10.55;8.93;;;;;;;20.91;65.22;97371.84;4929597;29;20426;-76
2021/09/11 05:26:12;;;;;;;12.30;8.38;;;;;;;20.88;65.68;97369.78;4938813;29;20114;-76
2021/09/11 05:28:38;;;;;;;12.23;8.90;;;;;;;20.88;65.92;97384.91;4950747;29;20035;-76
2021/09/11 05:31:03;;;;;;;11.48;8.93;;;;;;;20.89;65.96;97381.19;4949299;28;20070;-76
2021/09/11 05:33:29;;;;;;;10.57;9.10;;;;;;;20.92;65.36;97376.06;4934559;29;20027;-76
2021/09/11 05:35:54;;;;;;;10.43;8.65;;;;;;;21.00;65.33;97381.69;4935580;29;20031;-77
2021/09/11 05:38:20;;;;;;;12.38;9.35;;;;;;;20.96;65.35;97384.16;4950717;29;20086;-77
2021/09/11 05:40:45;;;;;;;11.23;8.48;;;;;;;20.97;65.45;97385.69;4934876;29;20502;-76
2021/09/11 05:43:11;;;;;;;11.18;9.23;;;;;;;21.00;65.25;97386.97;4951318;29;20038;-76
2021/09/11 05:45:36;;;;;;;11.80;9.23;;;;;;;21.00;65.23;97390.38;4935593;29;20506;-76
2021/09/11 05:48:02;;;;;;;11.88;8.80;;;;;;;21.04;65.21;97390.56;4934008;29;20456;-76
2021/09/11 05:50:27;;;;;;;12.38;9.88;;;;;;;21.01;65.46;97383.22;4934976;29;20546;-76
2021/09/11 05:52:52;;;;;;;12.57;8.90;;;;;;;21.05;65.27;97394.78;4934966;29;20035;-77
2021/09/11 05:55:18;;;;;;;12.02;9.18;;;;;;;21.06;65.17;97397.13;4934996;29;20352;-76
2021/09/11 05:57:43;;;;;;;11.98;9.25;;;;;;;21.08;64.90;97394.94;4950367;29;20031;-76
2021/09/11 06:00:11;;;;;;;12.05;9.13;;;;;;;21.07;65.08;97403.94;4934343;29;20054;-76
2021/09/11 06:02:36;;;;;;;10.52;9.10;;;;;;;21.09;64.97;97407.06;4934238;29;20035;-76
2021/09/11 06:05:02;;;;;;;12.32;10.15;;;;;;;21.05;65.00;97395.53;4931602;29;20119;-76
2021/09/11 06:07:27;;;;;;;11.27;8.85;;;;;;;21.06;65.14;97402.41;4936962;29;20043;-76
2021/09/11 06:09:52;;;;;;;12.60;9.48;;;;;;;21.13;65.33;97401.97;4949544;28;20272;-76
2021/09/11 06:12:18;;;;;;;12.93;9.65;;;;;;;21.23;65.19;97400.88;4950342;29;20041;-76
2021/09/11 06:14:43;;;;;;;12.13;9.85;;;;;;;21.25;65.24;97394.19;4947993;29;20059;-76
2021/09/11 06:17:08;;;;;;;12.88;10.55;;;;;;;21.27;65.06;97399.19;4933921;29;20479;-77
2021/09/11 06:19:35;;;;;;;10.85;9.20;;;;;;;21.37;64.77;97398.09;4934452;29;20444;-77
2021/09/11 06:22:00;;;;;;;13.63;9.32;;;;;;;21.44;64.73;97399.22;4949951;29;20256;-77
2021/09/11 06:24:26;;;;;;;13.27;9.52;;;;;;;21.40;64.52;97400.91;4940150;29;20083;-76
2021/09/11 06:26:52;;;;;;;11.43;9.13;;;;;;;21.45;64.42;97408.72;4915876;29;20039;-76
2021/09/11 06:29:19;;;;;;;12.00;9.93;;;;;;;21.42;64.95;97406.69;4922452;29;20030;-76
2021/09/11 06:31:45;;;;;;;12.30;8.75;;;;;;;21.46;64.55;97402.38;4934643;29;20043;-76
2021/09/11 06:34:10;;;;;;;13.35;9.57;;;;;;;21.51;64.31;97407.50;4950853;29;20023;-76
2021/09/11 06:36:36;;;;;;;9.68;8.63;;;;;;;21.49;64.51;97409.69;4934959;29;20078;-76
2021/09/11 06:39:01;;;;;;;13.23;9.68;;;;;;;21.57;64.34;97410.00;4933578;29;20067;-76
2021/09/11 06:41:26;;;;;;;11.88;9.18;;;;;;;21.58;64.30;97406.28;4917819;29;20042;-76
2021/09/11 06:43:52;;;;;;;10.20;9.15;;;;;;;21.63;64.32;97412.22;4950011;29;20396;-77
2021/09/11 06:46:17;;;;;;;12.45;9.45;;;;;;;21.66;64.15;97406.28;4951271;29;20038;-77
2021/09/11 06:48:43;;;;;;;12.30;10.15;;;;;;;21.76;63.65;97404.41;4918618;29;20480;-76
2021/09/11 06:51:12;;;;;;;11.48;9.45;;;;;;;21.64;64.12;97405.81;4948126;28;20067;-76
2021/09/11 06:53:37;;;;;;;12.48;9.73;;;;;;;21.80;63.59;97408.78;4916262;29;20063;-76
2021/09/11 06:56:04;;;;;;;13.85;10.05;;;;;;;21.85;63.51;97405.97;4951610;28;20066;-76
2021/09/11 06:58:29;;;;;;;12.27;9.18;;;;;;;21.87;63.51;97405.69;4969222;28;20038;-76
2021/09/11 07:00:55;;;;;;;10.48;9.38;;;;;;;21.96;62.88;97401.13;4952221;28;20038;-76
2021/09/11 07:03:20;;;;;;;12.10;9.80;;;;;;;21.98;63.54;97412.19;4931018;29;20405;-76
2021/09/11 07:05:46;;;;;;;12.20;10.00;;;;;;;22.02;63.33;97405.19;4899603;29;20519;-76
2021/09/11 07:08:11;;;;;;;12.63;9.68;;;;;;;22.03;62.63;97406.75;4938250;29;20106;-76
2021/09/11 07:10:37;;;;;;;13.65;9.70;;;;;;;22.02;62.71;97409.69;4932766;29;20506;-76
2021/09/11 07:13:02;;;;;;;13.05;10.50;;;;;;;21.92;63.10;97410.03;4933677;29;20043;-76
2021/09/11 07:15:27;;;;;;;12.77;10.70;;;;;;;21.87;63.68;97410.97;4933656;29;20425;-76
2021/09/11 07:17:53;;;;;;;13.77;10.80;;;;;;;21.89;63.58;97412.22;4932824;29;20035;-77
2021/09/11 07:20:18;;;;;;;10.55;9.27;;;;;;;21.95;63.33;97409.41;4933082;29;20494;-77
2021/09/11 07:22:43;;;;;;;13.80;11.27;;;;;;;21.91;63.24;97413.78;4933530;29;20479;-76
2021/09/11 07:25:10;;;;;;;12.38;9.73;;;;;;;21.90;63.17;97413.00;4914962;29;20499;-76
2021/09/11 07:27:35;;;;;;;15.63;11.70;;;;;;;21.81;63.78;97418.28;4942730;28;20067;-76
2021/09/11 07:30:00;;;;;;;12.00;10.10;;;;;;;21.73;64.23;97412.97;4949619;29;20407;-76
2021/09/11 07:32:31;;;;;;;13.23;10.68;;;;;;;21.73;64.10;97419.09;4949370;29;20047;-77
2021/09/11 07:34:56;;;;;;;12.98;9.77;;;;;;;21.82;64.23;97417.19;4949418;29;20407;-77
2021/09/11 07:37:22;;;;;;;16.27;11.77;;;;;;;21.76;64.16;97421.09;4933261;29;20057;-76
2021/09/11 07:39:47;;;;;;;16.38;12.20;;;;;;;21.75;64.46;97424.06;4933681;29;20027;-76
2021/09/11 07:42:14;;;;;;;12.07;10.35;;;;;;;21.84;63.81;97422.19;4917456;29;20034;-77
2021/09/11 07:44:40;;;;;;;12.85;10.02;;;;;;;21.88;64.26;97433.72;4933309;29;20046;-77
2021/09/11 07:47:05;;;;;;;13.98;11.50;;;;;;;21.85;63.64;97427.19;4915805;29;20031;-77
2021/09/11 07:49:30;;;;;;;14.57;11.60;;;;;;;21.81;64.21;97425.47;4932843;29;20472;-76
2021/09/11 07:51:56;;;;;;;16.80;12.07;;;;;;;21.72;64.34;97427.34;4913010;29;20051;-77
2021/09/11 07:54:21;;;;;;;15.13;11.80;;;;;;;21.74;64.39;97436.53;4951778;28;20035;-77
2021/09/11 07:56:47;;;;;;;13.55;11.98;;;;;;;21.71;64.37;97442.44;4936558;29;20061;-76
2021/09/11 07:59:12;;;;;;;16.25;11.68;;;;;;;21.70;64.79;97443.56;4935039;28;20023;-76
2021/09/11 08:01:37;;;;;;;16.75;12.38;;;;;;;21.83;64.57;97445.28;4937217;29;20051;-76
2021/09/11 08:04:03;;;;;;;15.50;11.70;;;;;;;21.84;64.65;97441.53;4936307;29;20059;-76
2021/09/11 08:06:28;;;;;;;20.52;13.20;;;;;;;21.73;65.18;97450.88;4939970;28;20027;-76
2021/09/11 08:08:54;;;;;;;15.52;10.88;;;;;;;21.81;64.72;97450.09;4938234;29;20122;-77
2021/09/11 08:11:19;;;;;;;14.35;11.40;;;;;;;21.75;65.33;97454.00;4951658;29;20053;-76
2021/09/11 08:13:44;;;;;;;16.73;11.77;;;;;;;21.79;64.92;97454.94;4928204;29;20047;-76
2021/09/11 08:16:10;;;;;;;15.38;11.35;;;;;;;21.80;65.07;97455.72;4943033;28;20495;-77
2021/09/11 08:18:35;;;;;;;14.77;11.65;;;;;;;21.95;64.14;97459.78;4964887;28;20452;-76
2021/09/11 08:21:01;;;;;;;17.02;12.80;;;;;;;21.90;64.45;97458.06;4937575;28;20393;-77
2021/09/11 08:23:26;;;;;;;19.35;12.23;;;;;;;22.02;63.96;97458.22;4940334;29;20035;-77
2021/09/11 08:25:52;;;;;;;15.95;11.45;;;;;;;22.00;64.51;97462.28;4923978;29;20035;-76
2021/09/11 08:28:17;;;;;;;14.20;10.63;;;;;;;22.07;64.41;97460.72;4913496;29;20039;-77
2021/09/11 08:30:43;;;;;;;15.65;11.82;;;;;;;22.14;64.00;97462.91;4941606;29;20038;-76
2021/09/11 08:33:13;;;;;;;14.25;11.35;;;;;;;21.98;64.16;97467.88;4943057;28;20043;-77
2021/09/11 08:35:39;;;;;;;13.05;10.00;;;;;;;22.13;63.97;97468.53;4953163;28;20505;-76
2021/09/11 08:38:04;;;;;;;12.40;10.20;;;;;;;22.27;63.24;97466.47;4936737;28;20157;-77
2021/09/11 08:40:29;;;;;;;10.75;8.57;;;;;;;22.29;63.17;97469.63;4952841;28;20106;-77
2021/09/11 08:42:55;;;;;;;10.82;9.13;;;;;;;22.33;63.00;97477.72;4940264;29;20031;-76
2021/09/11 08:45:20;;;;;;;9.80;8.27;;;;;;;22.32;62.58;97471.66;4920700;29;20061;-77
2021/09/11 08:47:47;;;;;;;12.43;9.75;;;;;;;22.05;63.63;97475.38;4949727;28;20362;-76
2021/09/11 08:50:13;;;;;;;12.50;9.40;;;;;;;22.12;63.72;97473.03;4932325;28;20026;-76
2021/09/11 08:52:43;;;;;;;11.45;8.70;;;;;;;22.17;63.32;97474.75;4955680;28;20093;-76
2021/09/11 08:55:09;;;;;;;10.05;8.20;;;;;;;22.31;62.46;97472.75;4965504;28;20502;-76
2021/09/11 08:57:35;;;;;;;10.93;8.80;;;;;;;22.31;62.91;97483.38;4961094;28;20058;-76
2021/09/11 09:00:04;;;;;;;10.55;7.97;;;;;;;22.22;63.37;97475.38;4919271;29;20062;-76
2021/09/11 09:02:30;;;;;;;9.18;7.70;;;;;;;22.28;63.12;97464.63;4919988;29;20046;-76
2021/09/11 09:05:02;;;;;;;9.32;7.40;;;;;;;22.24;62.90;97475.06;4920174;29;20123;-76
2021/09/11 09:07:29;;;;;;;10.35;7.88;;;;;;;22.34;63.49;97472.13;4947873;28;20045;-77
2021/09/11 09:09:59;;;;;;;8.35;7.18;;;;;;;22.31;63.18;97469.31;4970670;28;20553;-77
2021/09/11 09:12:25;;;;;;;10.82;7.57;;;;;;;22.45;63.37;97469.94;4929854;29;20067;-76
2021/09/11 09:15:01;;;;;;;8.93;6.65;;;;;;;22.28;63.39;97469.94;4933971;29;20091;-77
2021/09/11 09:17:49;;;;;;;7.05;6.03;;;;;;;22.25;62.88;97477.41;4920255;29;20126;-77
2021/09/11 09:20:18;;;;;;;9.57;6.93;;;;;;;22.46;62.95;97473.38;4950604;29;20027;-77
2021/09/11 09:22:45;;;;;;;8.02;6.70;;;;;;;22.41;63.08;97476.94;4935902;29;20101;-77
2021/09/11 09:25:34;;;;;;;7.38;5.93;;;;;;;22.29;62.92;97479.47;4919931;29;20034;-77
2021/09/11 09:28:02;;;;;;;7.22;6.22;;;;;;;22.37;62.63;97478.69;4931565;29;20054;-76
2021/09/11 09:30:45;;;;;;;7.65;6.80;;;;;;;22.31;62.72;97475.41;4951298;28;20487;-77
2021/09/11 09:33:23;;;;;;;8.23;5.88;;;;;;;22.36;63.05;97477.91;4951894;29;20039;-76
2021/09/11 09:35:50;;;;;;;5.63;5.13;;;;;;;22.64;62.69;97472.25;4920287;29;20415;-76
2021/09/11 09:38:18;;;;;;;6.03;5.43;;;;;;;22.63;62.41;97476.75;4942485;29;20307;-76
2021/09/11 09:40:51;;;;;;;5.63;4.93;;;;;;;22.70;61.62;97470.19;4900607;29;20028;-76
2021/09/11 09:43:38;;;;;;;5.65;4.90;;;;;;;22.69;61.66;97474.72;4912343;29;20141;-77
2021/09/11 09:46:18;;;;;;;5.70;5.10;;;;;;;22.83;61.17;97479.06;4951507;29;20031;-76
2021/09/11 09:48:48;;;;;;;5.28;4.50;;;;;;;23.07;60.15;97478.56;4935871;29;20035;-77
2021/09/11 09:51:16;;;;;;;5.28;4.40;;;;;;;23.04;60.42;97479.94;4951403;28;20043;-77
2021/09/11 09:53:44;;;;;;;4.85;4.43;;;;;;;23.18;59.08;97485.06;4933983;29;20369;-77
2021/09/11 09:56:11;;;;;;;5.15;4.35;;;;;;;23.17;60.36;97471.00;4947205;29;20559;-77
2021/09/11 09:58:39;;;;;;;4.72;4.32;;;;;;;23.25;60.03;97480.00;4950706;29;20055;-76
2021/09/11 10:01:06;;;;;;;6.65;5.28;;;;;;;23.27;60.04;97482.34;4934927;29;20534;-76
2021/09/11 10:03:33;;;;;;;5.18;4.38;;;;;;;23.26;59.92;97472.84;4932343;29;20035;-76
2021/09/11 10:06:04;;;;;;;4.40;4.00;;;;;;;23.20;60.53;97477.53;4944395;29;20559;-76
2021/09/11 10:08:37;;;;;;;5.73;4.67;;;;;;;23.29;59.88;97475.63;4949369;29;20167;-77
2021/09/11 10:11:10;;;;;;;4.82;4.43;;;;;;;23.21;60.51;97475.69;4935053;29;20085;-76
2021/09/11 10:14:00;;;;;;;4.65;4.03;;;;;;;23.23;60.10;97468.94;4950918;29;20485;-77
2021/09/11 10:16:38;;;;;;;5.30;4.35;;;;;;;23.40;60.30;97465.41;4918562;29;20035;-77
2021/09/11 10:19:39;;;;;;;5.00;4.50;;;;;;;23.34;59.27;97462.16;4951517;28;20058;-76
2021/09/11 10:22:22;;;;;;;4.15;3.75;;;;;;;23.68;58.81;97465.72;4921763;29;20097;-77
2021/09/11 10:24:50;;;;;;;4.75;4.32;;;;;;;23.91;57.98;97462.78;4950087;29;20082;-76
2021/09/11 10:27:24;;;;;;;6.32;4.63;;;;;;;23.99;57.57;97458.50;4950115;29;20035;-77
2021/09/11 10:29:55;;;;;;;4.65;4.07;;;;;;;24.28;57.26;97450.44;4929087;29;20406;-77
2021/09/11 10:32:21;;;;;;;4.55;4.15;;;;;;;24.92;56.81;97450.28;4943698;29;20471;-77
2021/09/11 10:34:54;;;;;;;4.30;3.90;;;;;;;25.36;55.14;97447.84;4932647;29;20071;-77
2021/09/11 10:37:30;;;;;;;5.60;4.45;;;;;;;25.44;53.98;97454.97;4963060;28;20085;-77
2021/09/11 10:40:14;;;;;;;4.25;3.88;;;;;;;26.01;50.82;97455.09;4951186;28;20057;-76
2021/09/11 10:43:01;;;;;;;4.55;4.15;;;;;;;25.95;50.77;97447.31;4934426;29;20065;-77
2021/09/11 10:45:57;;;;;;;4.80;4.40;;;;;;;26.02;51.22;97440.66;4950799;29;20042;-77
2021/09/11 10:48:48;;;;;;;4.40;4.00;;;;;;;26.48;50.90;97449.13;4934358;29;20430;-76
2021/09/11 10:51:25;;;;;;;3.60;3.30;;;;;;;26.39;49.87;97438.59;4931291;29;20035;-76
2021/09/11 10:54:00;;;;;;;3.85;3.55;;;;;;;26.39;50.83;97443.94;4947597;29;20032;-76
2021/09/11 10:56:28;;;;;;;4.20;3.90;;;;;;;26.13;51.57;97439.81;4953605;28;20114;-76
2021/09/11 10:59:19;;;;;;;3.85;3.53;;;;;;;25.84;52.31;97445.44;4934668;29;20019;-77
2021/09/11 11:02:21;;;;;;;4.00;3.50;;;;;;;26.12;51.45;97440.94;4951776;28;20472;-77
2021/09/11 11:04:47;;;;;;;4.35;3.72;;;;;;;26.65;49.87;97440.81;4934341;29;20044;-76
2021/09/11 11:07:17;;;;;;;3.45;3.05;;;;;;;26.39;50.03;97440.47;4952055;28;20050;-77
2021/09/11 11:09:46;;;;;;;3.40;3.15;;;;;;;26.08;51.47;97439.28;4934045;29;20124;-77
2021/09/11 11:12:13;;;;;;;4.07;3.13;;;;;;;25.96;51.09;97440.88;4966954;28;20035;-76
2021/09/11 11:14:45;;;;;;;3.22;2.92;;;;;;;25.70;51.74;97437.81;4919261;29;20066;-77
2021/09/11 11:17:17;;;;;;;3.90;3.47;;;;;;;25.53;51.91;97442.28;4949912;29;20023;-77
2021/09/11 11:19:47;;;;;;;3.55;3.25;;;;;;;25.28;53.28;97446.09;4935748;28;20039;-77
2021/09/11 11:22:18;;;;;;;3.65;3.35;;;;;;;25.33;53.09;97443.22;4958932;28;20043;-77
2021/09/11 11:24:46;;;;;;;3.53;3.22;;;;;;;25.21;54.69;97443.97;4919155;29;20117;-76
2021/09/11 11:27:14;;;;;;;4.32;3.95;;;;;;;25.08;56.33;97450.38;4933397;29;20059;-77
2021/09/11 11:29:42;;;;;;;4.07;3.78;;;;;;;25.09;55.72;97449.25;4930586;29;20034;-77
2021/09/11 11:32:08;;;;;;;3.95;3.65;;;;;;;25.09;56.68;97447.41;4933952;29;20042;-76